sensor_id;sensor_type;location;lat;lon;timestamp;P1;durP1;ratioP1;P2;durP2;ratioP2
9473;SDS011;8865;47.636;7.692;2023-03-13T00:01:27;7.60;;;4.07;;
9473;SDS011;8865;47.636;7.692;2023-03-13T00:04:00;8.27;;;4.27;;
9473;SDS011;8865;47.636;7.692;2023-03-13T00:06:26;12.40;;;4.33;;
9473;SDS011;8865;47.636;7.692;2023-03-13T00:08:56;11.23;;;4.30;;
9473;SDS011;8865;47.636;7.692;2023-03-13T00:11:25;14.47;;;5.10;;
9473;SDS011;8865;47.636;7.692;2023-03-13T00:13:54;9.73;;;4.37;;
9473;SDS011;8865;47.636;7.692;2023-03-13T00:16:22;9.20;;;4.53;;
9473;SDS011;8865;47.636;7.692;2023-03-13T00:18:49;11.03;;;4.47;;
9473;SDS011;8865;47.636;7.692;2023-03-13T00:21:18;10.03;;;4.13;;
9473;SDS011;8865;47.636;7.692;2023-03-13T00:23:45;8.63;;;4.47;;
9473;SDS011;8865;47.636;7.692;2023-03-13T00:26:15;9.13;;;4.57;;
9473;SDS011;8865;47.636;7.692;2023-03-13T00:28:43;11.70;;;4.60;;
9473;SDS011;8865;47.636;7.692;2023-03-13T00:31:13;11.40;;;4.67;;
9473;SDS011;8865;47.636;7.692;2023-03-13T00:33:46;8.60;;;4.27;;
9473;SDS011;8865;47.636;7.692;2023-03-13T00:36:14;8.13;;;3.97;;
9473;SDS011;8865;47.636;7.692;2023-03-13T00:38:45;8.17;;;3.77;;
9473;SDS011;8865;47.636;7.692;2023-03-13T00:41:12;8.17;;;4.17;;
9473;SDS011;8865;47.636;7.692;2023-03-13T00:43:42;9.93;;;4.70;;
9473;SDS011;8865;47.636;7.692;2023-03-13T00:46:10;8.33;;;3.90;;
9473;SDS011;8865;47.636;7.692;2023-03-13T00:48:37;9.77;;;4.77;;
9473;SDS011;8865;47.636;7.692;2023-03-13T00:51:03;7.83;;;3.90;;
9473;SDS011;8865;47.636;7.692;2023-03-13T00:53:30;8.47;;;4.10;;
9473;SDS011;8865;47.636;7.692;2023-03-13T00:55:57;8.47;;;3.63;;
9473;SDS011;8865;47.636;7.692;2023-03-13T00:58:26;8.83;;;4.20;;
9473;SDS011;8865;47.636;7.692;2023-03-13T01:00:53;9.50;;;3.83;;
9473;SDS011;8865;47.636;7.692;2023-03-13T01:03:20;7.80;;;3.57;;
9473;SDS011;8865;47.636;7.692;2023-03-13T01:05:59;8.83;;;3.83;;
9473;SDS011;8865;47.636;7.692;2023-03-13T01:08:26;7.17;;;3.33;;
9473;SDS011;8865;47.636;7.692;2023-03-13T01:11:00;8.70;;;3.80;;
9473;SDS011;8865;47.636;7.692;2023-03-13T01:13:28;8.23;;;3.50;;
9473;SDS011;8865;47.636;7.692;2023-03-13T01:16:01;7.40;;;3.00;;
9473;SDS011;8865;47.636;7.692;2023-03-13T01:18:35;7.43;;;3.30;;
9473;SDS011;8865;47.636;7.692;2023-03-13T01:21:03;8.10;;;3.60;;
9473;SDS011;8865;47.636;7.692;2023-03-13T01:23:29;8.07;;;3.30;;
9473;SDS011;8865;47.636;7.692;2023-03-13T01:25:55;9.30;;;3.40;;
9473;SDS011;8865;47.636;7.692;2023-03-13T01:28:22;6.43;;;3.20;;
9473;SDS011;8865;47.636;7.692;2023-03-13T01:30:50;10.23;;;3.90;;
9473;SDS011;8865;47.636;7.692;2023-03-13T01:33:16;7.50;;;3.60;;
9473;SDS011;8865;47.636;7.692;2023-03-13T01:35:42;8.33;;;3.10;;
9473;SDS011;8865;47.636;7.692;2023-03-13T01:38:09;6.10;;;3.27;;
9473;SDS011;8865;47.636;7.692;2023-03-13T01:40:39;8.27;;;3.30;;
9473;SDS011;8865;47.636;7.692;2023-03-13T01:43:17;7.50;;;3.20;;
9473;SDS011;8865;47.636;7.692;2023-03-13T01:56:35;5.63;;;2.60;;
9473;SDS011;8865;47.636;7.692;2023-03-13T01:59:08;7.27;;;2.73;;
9473;SDS011;8865;47.636;7.692;2023-03-13T02:01:36;7.83;;;2.80;;
9473;SDS011;8865;47.636;7.692;2023-03-13T02:04:03;6.43;;;2.83;;
9473;SDS011;8865;47.636;7.692;2023-03-13T02:06:30;10.13;;;2.90;;
9473;SDS011;8865;47.636;7.692;2023-03-13T02:09:01;5.70;;;2.87;;
9473;SDS011;8865;47.636;7.692;2023-03-13T02:11:43;7.17;;;3.03;;
9473;SDS011;8865;47.636;7.692;2023-03-13T02:14:13;8.03;;;2.77;;
9473;SDS011;8865;47.636;7.692;2023-03-13T02:16:41;6.87;;;2.90;;
9473;SDS011;8865;47.636;7.692;2023-03-13T02:19:16;5.23;;;2.47;;
9473;SDS011;8865;47.636;7.692;2023-03-13T02:22:09;7.33;;;2.77;;
9473;SDS011;8865;47.636;7.692;2023-03-13T02:28:00;8.20;;;2.67;;
9473;SDS011;8865;47.636;7.692;2023-03-13T02:30:32;7.43;;;2.50;;
9473;SDS011;8865;47.636;7.692;2023-03-13T02:32:59;7.67;;;2.83;;
9473;SDS011;8865;47.636;7.692;2023-03-13T02:35:25;5.23;;;2.67;;
9473;SDS011;8865;47.636;7.692;2023-03-13T02:37:53;6.20;;;2.63;;
9473;SDS011;8865;47.636;7.692;2023-03-13T02:40:25;6.27;;;2.67;;
9473;SDS011;8865;47.636;7.692;2023-03-13T02:42:54;6.97;;;2.77;;
9473;SDS011;8865;47.636;7.692;2023-03-13T02:45:22;6.40;;;2.30;;
9473;SDS011;8865;47.636;7.692;2023-03-13T02:47:49;6.23;;;2.60;;
9473;SDS011;8865;47.636;7.692;2023-03-13T02:50:15;8.10;;;2.30;;
9473;SDS011;8865;47.636;7.692;2023-03-13T02:52:42;6.00;;;2.40;;
9473;SDS011;8865;47.636;7.692;2023-03-13T02:55:15;6.33;;;2.83;;
9473;SDS011;8865;47.636;7.692;2023-03-13T02:57:47;6.50;;;2.50;;
9473;SDS011;8865;47.636;7.692;2023-03-13T03:00:13;7.03;;;2.80;;
9473;SDS011;8865;47.636;7.692;2023-03-13T03:02:42;8.40;;;2.70;;
9473;SDS011;8865;47.636;7.692;2023-03-13T03:05:09;5.87;;;2.80;;
9473;SDS011;8865;47.636;7.692;2023-03-13T03:07:36;4.60;;;2.43;;
9473;SDS011;8865;47.636;7.692;2023-03-13T03:10:02;4.73;;;2.90;;
9473;SDS011;8865;47.636;7.692;2023-03-13T03:12:28;6.47;;;2.57;;
9473;SDS011;8865;47.636;7.692;2023-03-13T03:14:54;7.30;;;2.80;;
9473;SDS011;8865;47.636;7.692;2023-03-13T03:17:20;7.40;;;2.60;;
9473;SDS011;8865;47.636;7.692;2023-03-13T03:19:46;8.63;;;3.03;;
9473;SDS011;8865;47.636;7.692;2023-03-13T03:22:12;7.17;;;2.70;;
9473;SDS011;8865;47.636;7.692;2023-03-13T03:24:38;4.57;;;2.33;;
9473;SDS011;8865;47.636;7.692;2023-03-13T03:27:04;7.30;;;2.20;;
9473;SDS011;8865;47.636;7.692;2023-03-13T03:29:30;8.77;;;2.50;;
9473;SDS011;8865;47.636;7.692;2023-03-13T03:31:56;4.73;;;2.50;;
9473;SDS011;8865;47.636;7.692;2023-03-13T03:34:22;9.13;;;2.50;;
9473;SDS011;8865;47.636;7.692;2023-03-13T03:36:48;5.47;;;2.27;;
9473;SDS011;8865;47.636;7.692;2023-03-13T03:39:15;5.63;;;2.10;;
9473;SDS011;8865;47.636;7.692;2023-03-13T03:41:40;7.17;;;2.43;;
9473;SDS011;8865;47.636;7.692;2023-03-13T03:44:06;6.80;;;2.47;;
9473;SDS011;8865;47.636;7.692;2023-03-13T03:46:32;7.23;;;2.70;;
9473;SDS011;8865;47.636;7.692;2023-03-13T03:48:58;5.67;;;2.30;;
9473;SDS011;8865;47.636;7.692;2023-03-13T03:51:24;7.57;;;2.20;;
9473;SDS011;8865;47.636;7.692;2023-03-13T03:53:50;5.30;;;2.33;;
9473;SDS011;8865;47.636;7.692;2023-03-13T03:56:16;7.60;;;2.50;;
9473;SDS011;8865;47.636;7.692;2023-03-13T03:58:42;5.27;;;2.30;;
9473;SDS011;8865;47.636;7.692;2023-03-13T04:01:08;6.23;;;2.70;;
9473;SDS011;8865;47.636;7.692;2023-03-13T04:03:34;6.73;;;2.20;;
9473;SDS011;8865;47.636;7.692;2023-03-13T04:06:00;8.27;;;2.80;;
9473;SDS011;8865;47.636;7.692;2023-03-13T04:08:26;6.67;;;2.70;;
9473;SDS011;8865;47.636;7.692;2023-03-13T04:10:52;4.00;;;2.30;;
9473;SDS011;8865;47.636;7.692;2023-03-13T04:13:18;8.03;;;2.27;;
9473;SDS011;8865;47.636;7.692;2023-03-13T04:15:44;7.80;;;2.97;;
9473;SDS011;8865;47.636;7.692;2023-03-13T04:18:10;4.43;;;2.33;;
9473;SDS011;8865;47.636;7.692;2023-03-13T04:20:36;5.27;;;2.33;;
9473;SDS011;8865;47.636;7.692;2023-03-13T04:23:02;4.17;;;2.50;;
9473;SDS011;8865;47.636;7.692;2023-03-13T04:25:28;4.80;;;2.10;;
9473;SDS011;8865;47.636;7.692;2023-03-13T04:27:54;7.73;;;2.33;;
9473;SDS011;8865;47.636;7.692;2023-03-13T04:30:20;6.53;;;2.50;;
9473;SDS011;8865;47.636;7.692;2023-03-13T04:32:46;5.20;;;2.47;;
9473;SDS011;8865;47.636;7.692;2023-03-13T04:35:12;6.40;;;2.20;;
9473;SDS011;8865;47.636;7.692;2023-03-13T04:37:38;5.77;;;2.30;;
9473;SDS011;8865;47.636;7.692;2023-03-13T04:40:04;5.23;;;2.30;;
9473;SDS011;8865;47.636;7.692;2023-03-13T04:42:31;6.37;;;2.20;;
9473;SDS011;8865;47.636;7.692;2023-03-13T04:44:57;7.13;;;2.83;;
9473;SDS011;8865;47.636;7.692;2023-03-13T04:47:23;5.53;;;2.40;;
9473;SDS011;8865;47.636;7.692;2023-03-13T04:49:49;5.30;;;2.63;;
9473;SDS011;8865;47.636;7.692;2023-03-13T04:52:15;5.63;;;2.60;;
9473;SDS011;8865;47.636;7.692;2023-03-13T04:54:41;5.27;;;2.07;;
9473;SDS011;8865;47.636;7.692;2023-03-13T04:57:07;7.17;;;2.30;;
9473;SDS011;8865;47.636;7.692;2023-03-13T04:59:33;7.37;;;2.33;;
9473;SDS011;8865;47.636;7.692;2023-03-13T05:01:59;5.57;;;2.37;;
9473;SDS011;8865;47.636;7.692;2023-03-13T05:04:25;5.47;;;2.60;;
9473;SDS011;8865;47.636;7.692;2023-03-13T05:06:51;6.03;;;2.40;;
9473;SDS011;8865;47.636;7.692;2023-03-13T05:09:17;6.97;;;2.57;;
9473;SDS011;8865;47.636;7.692;2023-03-13T05:11:43;5.13;;;2.53;;
9473;SDS011;8865;47.636;7.692;2023-03-13T05:14:09;5.43;;;2.87;;
9473;SDS011;8865;47.636;7.692;2023-03-13T05:16:36;5.03;;;2.53;;
9473;SDS011;8865;47.636;7.692;2023-03-13T05:19:03;5.30;;;2.43;;
9473;SDS011;8865;47.636;7.692;2023-03-13T05:21:29;7.97;;;2.77;;
9473;SDS011;8865;47.636;7.692;2023-03-13T05:23:55;4.77;;;2.30;;
9473;SDS011;8865;47.636;7.692;2023-03-13T05:26:22;5.50;;;2.43;;
9473;SDS011;8865;47.636;7.692;2023-03-13T05:28:48;6.57;;;2.83;;
9473;SDS011;8865;47.636;7.692;2023-03-13T05:31:14;5.67;;;2.80;;
9473;SDS011;8865;47.636;7.692;2023-03-13T05:33:40;6.57;;;3.37;;
9473;SDS011;8865;47.636;7.692;2023-03-13T05:36:06;10.70;;;7.93;;
9473;SDS011;8865;47.636;7.692;2023-03-13T05:38:32;8.70;;;3.40;;
9473;SDS011;8865;47.636;7.692;2023-03-13T05:40:59;6.03;;;2.57;;
9473;SDS011;8865;47.636;7.692;2023-03-13T05:43:25;6.00;;;2.63;;
9473;SDS011;8865;47.636;7.692;2023-03-13T05:45:51;7.13;;;2.50;;
9473;SDS011;8865;47.636;7.692;2023-03-13T05:48:17;5.17;;;3.60;;
9473;SDS011;8865;47.636;7.692;2023-03-13T05:50:43;7.80;;;3.77;;
9473;SDS011;8865;47.636;7.692;2023-03-13T05:53:09;9.63;;;4.00;;
9473;SDS011;8865;47.636;7.692;2023-03-13T05:55:35;6.37;;;3.50;;
9473;SDS011;8865;47.636;7.692;2023-03-13T05:58:01;7.00;;;3.90;;
9473;SDS011;8865;47.636;7.692;2023-03-13T06:00:27;9.53;;;3.70;;
9473;SDS011;8865;47.636;7.692;2023-03-13T06:02:53;8.70;;;4.33;;
9473;SDS011;8865;47.636;7.692;2023-03-13T06:05:18;7.97;;;3.13;;
9473;SDS011;8865;47.636;7.692;2023-03-13T06:07:45;7.77;;;4.13;;
9473;SDS011;8865;47.636;7.692;2023-03-13T06:10:11;6.00;;;3.00;;
9473;SDS011;8865;47.636;7.692;2023-03-13T06:12:37;4.03;;;2.77;;
9473;SDS011;8865;47.636;7.692;2023-03-13T06:15:03;6.67;;;2.73;;
9473;SDS011;8865;47.636;7.692;2023-03-13T06:17:32;8.00;;;3.67;;
9473;SDS011;8865;47.636;7.692;2023-03-13T06:19:58;7.87;;;3.33;;
9473;SDS011;8865;47.636;7.692;2023-03-13T06:22:23;9.33;;;4.57;;
9473;SDS011;8865;47.636;7.692;2023-03-13T06:24:49;7.87;;;3.03;;
9473;SDS011;8865;47.636;7.692;2023-03-13T06:27:16;6.40;;;2.50;;
9473;SDS011;8865;47.636;7.692;2023-03-13T06:29:42;3.87;;;2.70;;
9473;SDS011;8865;47.636;7.692;2023-03-13T06:32:08;4.93;;;2.83;;
9473;SDS011;8865;47.636;7.692;2023-03-13T06:34:34;7.30;;;3.53;;
9473;SDS011;8865;47.636;7.692;2023-03-13T06:37:00;30.70;;;23.63;;
9473;SDS011;8865;47.636;7.692;2023-03-13T06:39:26;7.70;;;3.63;;
9473;SDS011;8865;47.636;7.692;2023-03-13T06:41:52;7.00;;;3.23;;
9473;SDS011;8865;47.636;7.692;2023-03-13T06:44:18;3.53;;;2.37;;
9473;SDS011;8865;47.636;7.692;2023-03-13T06:46:44;6.70;;;2.50;;
9473;SDS011;8865;47.636;7.692;2023-03-13T06:49:10;4.63;;;2.37;;
9473;SDS011;8865;47.636;7.692;2023-03-13T06:51:36;4.70;;;2.90;;
9473;SDS011;8865;47.636;7.692;2023-03-13T06:54:02;5.57;;;2.67;;
9473;SDS011;8865;47.636;7.692;2023-03-13T06:56:28;4.87;;;2.50;;
9473;SDS011;8865;47.636;7.692;2023-03-13T06:58:54;6.53;;;3.17;;
9473;SDS011;8865;47.636;7.692;2023-03-13T07:01:20;3.47;;;2.90;;
9473;SDS011;8865;47.636;7.692;2023-03-13T07:03:46;5.50;;;2.63;;
9473;SDS011;8865;47.636;7.692;2023-03-13T07:06:14;4.47;;;2.53;;
9473;SDS011;8865;47.636;7.692;2023-03-13T07:08:40;6.33;;;2.93;;
9473;SDS011;8865;47.636;7.692;2023-03-13T07:11:08;4.37;;;2.90;;
9473;SDS011;8865;47.636;7.692;2023-03-13T07:13:35;5.40;;;2.40;;
9473;SDS011;8865;47.636;7.692;2023-03-13T07:16:02;10.47;;;3.20;;
9473;SDS011;8865;47.636;7.692;2023-03-13T07:18:30;10.83;;;3.43;;
9473;SDS011;8865;47.636;7.692;2023-03-13T07:20:58;10.07;;;4.50;;
9473;SDS011;8865;47.636;7.692;2023-03-13T07:23:27;8.77;;;4.53;;
9473;SDS011;8865;47.636;7.692;2023-03-13T07:25:54;7.97;;;4.50;;
9473;SDS011;8865;47.636;7.692;2023-03-13T07:28:25;6.10;;;4.13;;
9473;SDS011;8865;47.636;7.692;2023-03-13T07:30:52;11.17;;;4.47;;
9473;SDS011;8865;47.636;7.692;2023-03-13T07:33:18;8.70;;;4.57;;
9473;SDS011;8865;47.636;7.692;2023-03-13T07:35:48;12.53;;;4.93;;
9473;SDS011;8865;47.636;7.692;2023-03-13T07:38:16;12.20;;;4.40;;
9473;SDS011;8865;47.636;7.692;2023-03-13T07:40:52;12.60;;;4.47;;
9473;SDS011;8865;47.636;7.692;2023-03-13T07:43:20;11.07;;;4.37;;
9473;SDS011;8865;47.636;7.692;2023-03-13T07:45:51;6.87;;;3.37;;
9473;SDS011;8865;47.636;7.692;2023-03-13T07:48:21;7.57;;;3.00;;
9473;SDS011;8865;47.636;7.692;2023-03-13T07:50:49;9.97;;;3.33;;
9473;SDS011;8865;47.636;7.692;2023-03-13T07:53:15;6.20;;;3.50;;
9473;SDS011;8865;47.636;7.692;2023-03-13T07:55:52;6.67;;;3.43;;
9473;SDS011;8865;47.636;7.692;2023-03-13T07:58:18;6.10;;;3.40;;
9473;SDS011;8865;47.636;7.692;2023-03-13T08:00:44;4.60;;;2.97;;
9473;SDS011;8865;47.636;7.692;2023-03-13T08:03:10;5.10;;;2.60;;
9473;SDS011;8865;47.636;7.692;2023-03-13T08:05:36;5.50;;;2.50;;
9473;SDS011;8865;47.636;7.692;2023-03-13T08:08:02;8.13;;;2.50;;
9473;SDS011;8865;47.636;7.692;2023-03-13T08:10:29;5.07;;;2.23;;
9473;SDS011;8865;47.636;7.692;2023-03-13T08:12:55;3.73;;;1.90;;
9473;SDS011;8865;47.636;7.692;2023-03-13T08:15:21;2.97;;;1.77;;
9473;SDS011;8865;47.636;7.692;2023-03-13T08:17:53;4.00;;;2.40;;
9473;SDS011;8865;47.636;7.692;2023-03-13T08:20:21;9.63;;;2.90;;
9473;SDS011;8865;47.636;7.692;2023-03-13T08:22:47;11.50;;;5.20;;
9473;SDS011;8865;47.636;7.692;2023-03-13T08:25:15;9.93;;;3.50;;
9473;SDS011;8865;47.636;7.692;2023-03-13T08:27:41;7.47;;;3.50;;
9473;SDS011;8865;47.636;7.692;2023-03-13T08:30:08;7.33;;;3.10;;
9473;SDS011;8865;47.636;7.692;2023-03-13T08:32:35;8.40;;;4.50;;
9473;SDS011;8865;47.636;7.692;2023-03-13T08:35:02;5.87;;;3.50;;
9473;SDS011;8865;47.636;7.692;2023-03-13T08:37:28;5.03;;;2.87;;
9473;SDS011;8865;47.636;7.692;2023-03-13T08:39:54;4.83;;;2.80;;
9473;SDS011;8865;47.636;7.692;2023-03-13T08:42:21;5.97;;;3.30;;
9473;SDS011;8865;47.636;7.692;2023-03-13T08:44:48;7.50;;;2.57;;
9473;SDS011;8865;47.636;7.692;2023-03-13T08:47:14;5.40;;;2.90;;
9473;SDS011;8865;47.636;7.692;2023-03-13T08:49:40;6.93;;;2.73;;
9473;SDS011;8865;47.636;7.692;2023-03-13T08:52:06;7.70;;;2.70;;
9473;SDS011;8865;47.636;7.692;2023-03-13T08:54:32;6.67;;;2.63;;
9473;SDS011;8865;47.636;7.692;2023-03-13T08:56:58;7.30;;;2.73;;
9473;SDS011;8865;47.636;7.692;2023-03-13T08:59:24;6.03;;;2.40;;
9473;SDS011;8865;47.636;7.692;2023-03-13T09:01:52;5.83;;;2.17;;
9473;SDS011;8865;47.636;7.692;2023-03-13T09:04:18;9.43;;;2.90;;
9473;SDS011;8865;47.636;7.692;2023-03-13T09:06:45;7.53;;;2.60;;
9473;SDS011;8865;47.636;7.692;2023-03-13T09:09:11;7.27;;;2.60;;
9473;SDS011;8865;47.636;7.692;2023-03-13T09:11:37;10.60;;;2.60;;
9473;SDS011;8865;47.636;7.692;2023-03-13T09:14:04;6.07;;;2.23;;
9473;SDS011;8865;47.636;7.692;2023-03-13T09:16:31;4.07;;;2.10;;
9473;SDS011;8865;47.636;7.692;2023-03-13T09:18:59;2.80;;;1.40;;
9473;SDS011;8865;47.636;7.692;2023-03-13T09:21:26;3.23;;;1.50;;
9473;SDS011;8865;47.636;7.692;2023-03-13T09:23:57;2.07;;;1.30;;
9473;SDS011;8865;47.636;7.692;2023-03-13T09:26:23;2.50;;;1.17;;
9473;SDS011;8865;47.636;7.692;2023-03-13T09:28:51;2.30;;;1.00;;
9473;SDS011;8865;47.636;7.692;2023-03-13T09:31:21;2.67;;;1.00;;
9473;SDS011;8865;47.636;7.692;2023-03-13T09:33:52;3.30;;;0.80;;
9473;SDS011;8865;47.636;7.692;2023-03-13T09:36:19;1.57;;;0.80;;
9473;SDS011;8865;47.636;7.692;2023-03-13T09:38:45;2.30;;;1.00;;
9473;SDS011;8865;47.636;7.692;2023-03-13T09:48:55;2.03;;;0.73;;
9473;SDS011;8865;47.636;7.692;2023-03-13T09:51:30;1.48;;;1.00;;
9473;SDS011;8865;47.636;7.692;2023-03-13T09:54:24;3.08;;;1.10;;
9473;SDS011;8865;47.636;7.692;2023-03-13T09:56:57;1.30;;;0.90;;
9473;SDS011;8865;47.636;7.692;2023-03-13T10:01:59;1.73;;;0.90;;
9473;SDS011;8865;47.636;7.692;2023-03-13T10:04:37;1.67;;;0.88;;
9473;SDS011;8865;47.636;7.692;2023-03-13T10:07:10;0.55;;;0.52;;
9473;SDS011;8865;47.636;7.692;2023-03-13T10:09:37;2.78;;;0.80;;
9473;SDS011;8865;47.636;7.692;2023-03-13T10:17:34;1.15;;;0.70;;
9473;SDS011;8865;47.636;7.692;2023-03-13T10:22:45;1.75;;;0.90;;
9473;SDS011;8865;47.636;7.692;2023-03-13T10:27:59;2.53;;;0.85;;
9473;SDS011;8865;47.636;7.692;2023-03-13T10:30:33;2.85;;;0.98;;
9473;SDS011;8865;47.636;7.692;2023-03-13T10:35:36;2.78;;;0.90;;
9473;SDS011;8865;47.636;7.692;2023-03-13T10:40:33;1.33;;;0.70;;
9473;SDS011;8865;47.636;7.692;2023-03-13T10:43:16;0.85;;;0.70;;
9473;SDS011;8865;47.636;7.692;2023-03-13T10:45:44;2.60;;;0.70;;
9473;SDS011;8865;47.636;7.692;2023-03-13T10:50:36;1.17;;;0.85;;
9473;SDS011;8865;47.636;7.692;2023-03-13T10:53:22;3.33;;;0.80;;
9473;SDS011;8865;47.636;7.692;2023-03-13T10:55:49;1.40;;;0.90;;
9473;SDS011;8865;47.636;7.692;2023-03-13T10:58:19;2.25;;;0.98;;
9473;SDS011;8865;47.636;7.692;2023-03-13T11:01:07;2.22;;;0.90;;
9473;SDS011;8865;47.636;7.692;2023-03-13T11:03:41;1.52;;;0.80;;
9473;SDS011;8865;47.636;7.692;2023-03-13T11:06:22;0.88;;;0.80;;
9473;SDS011;8865;47.636;7.692;2023-03-13T11:08:57;1.30;;;0.73;;
9473;SDS011;8865;47.636;7.692;2023-03-13T11:11:42;3.25;;;1.30;;
9473;SDS011;8865;47.636;7.692;2023-03-13T11:14:14;1.80;;;1.00;;
9473;SDS011;8865;47.636;7.692;2023-03-13T11:16:46;3.40;;;1.08;;
9473;SDS011;8865;47.636;7.692;2023-03-13T11:24:55;1.20;;;0.90;;
9473;SDS011;8865;47.636;7.692;2023-03-13T11:27:31;2.78;;;0.82;;
9473;SDS011;8865;47.636;7.692;2023-03-13T11:32:37;1.30;;;0.80;;
9473;SDS011;8865;47.636;7.692;2023-03-13T11:35:18;0.77;;;0.77;;
9473;SDS011;8865;47.636;7.692;2023-03-13T11:37:52;1.23;;;0.52;;
9473;SDS011;8865;47.636;7.692;2023-03-13T11:51:35;1.77;;;0.50;;
9473;SDS011;8865;47.636;7.692;2023-03-13T11:54:07;0.80;;;0.50;;
9473;SDS011;8865;47.636;7.692;2023-03-13T11:56:58;1.63;;;0.65;;
9473;SDS011;8865;47.636;7.692;2023-03-13T11:59:38;1.67;;;0.57;;
9473;SDS011;8865;47.636;7.692;2023-03-13T12:04:40;1.15;;;0.73;;
9473;SDS011;8865;47.636;7.692;2023-03-13T12:09:53;1.77;;;0.60;;
9473;SDS011;8865;47.636;7.692;2023-03-13T12:12:48;0.90;;;0.60;;
9473;SDS011;8865;47.636;7.692;2023-03-13T12:15:45;2.47;;;0.65;;
9473;SDS011;8865;47.636;7.692;2023-03-13T12:20:55;0.88;;;0.70;;
9473;SDS011;8865;47.636;7.692;2023-03-13T12:31:35;1.27;;;0.40;;
9473;SDS011;8865;47.636;7.692;2023-03-13T12:34:13;1.35;;;0.55;;
9473;SDS011;8865;47.636;7.692;2023-03-13T12:36:47;0.93;;;0.40;;
9473;SDS011;8865;47.636;7.692;2023-03-13T12:44:37;0.70;;;0.50;;
9473;SDS011;8865;47.636;7.692;2023-03-13T12:47:08;1.15;;;0.77;;
9473;SDS011;8865;47.636;7.692;2023-03-13T12:52:51;1.27;;;0.40;;
9473;SDS011;8865;47.636;7.692;2023-03-13T13:01:13;1.30;;;0.75;;
9473;SDS011;8865;47.636;7.692;2023-03-13T13:06:50;1.00;;;0.60;;
9473;SDS011;8865;47.636;7.692;2023-03-13T13:10:29;1.48;;;0.60;;
9473;SDS011;8865;47.636;7.692;2023-03-13T13:12:37;1.80;;;1.70;;
9473;SDS011;8865;47.636;7.692;2023-03-13T13:15:56;1.10;;;0.93;;
9473;SDS011;8865;47.636;7.692;2023-03-13T13:18:12;2.40;;;0.70;;
9473;SDS011;8865;47.636;7.692;2023-03-13T13:20:43;2.38;;;0.70;;
9473;SDS011;8865;47.636;7.692;2023-03-13T13:23:23;1.23;;;0.70;;
9473;SDS011;8865;47.636;7.692;2023-03-13T13:28:55;1.23;;;0.80;;
9473;SDS011;8865;47.636;7.692;2023-03-13T13:36:54;2.80;;;0.75;;
9473;SDS011;8865;47.636;7.692;2023-03-13T13:39:29;0.80;;;0.70;;
9473;SDS011;8865;47.636;7.692;2023-03-13T13:41:59;1.13;;;0.70;;
9473;SDS011;8865;47.636;7.692;2023-03-13T13:44:26;1.35;;;0.80;;
9473;SDS011;8865;47.636;7.692;2023-03-13T13:46:54;1.15;;;0.60;;
9473;SDS011;8865;47.636;7.692;2023-03-13T13:49:22;2.22;;;0.98;;
9473;SDS011;8865;47.636;7.692;2023-03-13T13:57:22;2.42;;;0.93;;
9473;SDS011;8865;47.636;7.692;2023-03-13T13:59:50;2.60;;;0.90;;
9473;SDS011;8865;47.636;7.692;2023-03-13T14:02:33;2.78;;;0.73;;
9473;SDS011;8865;47.636;7.692;2023-03-13T14:05:06;1.10;;;0.85;;
9473;SDS011;8865;47.636;7.692;2023-03-13T14:10:11;2.20;;;0.88;;
9473;SDS011;8865;47.636;7.692;2023-03-13T14:12:59;3.50;;;0.93;;
9473;SDS011;8865;47.636;7.692;2023-03-13T14:15:30;1.85;;;0.80;;
9473;SDS011;8865;47.636;7.692;2023-03-13T14:18:01;2.10;;;0.80;;
9473;SDS011;8865;47.636;7.692;2023-03-13T14:20:37;1.50;;;0.80;;
9473;SDS011;8865;47.636;7.692;2023-03-13T14:23:06;1.30;;;0.88;;
9473;SDS011;8865;47.636;7.692;2023-03-13T14:25:44;1.23;;;0.52;;
9473;SDS011;8865;47.636;7.692;2023-03-13T14:30:46;1.98;;;0.82;;
9473;SDS011;8865;47.636;7.692;2023-03-13T14:33:15;1.58;;;0.80;;
9473;SDS011;8865;47.636;7.692;2023-03-13T14:35:41;2.78;;;0.88;;
9473;SDS011;8865;47.636;7.692;2023-03-13T14:38:21;0.75;;;0.70;;
9473;SDS011;8865;47.636;7.692;2023-03-13T14:40:51;1.85;;;0.70;;
9473;SDS011;8865;47.636;7.692;2023-03-13T14:43:30;2.33;;;1.10;;
9473;SDS011;8865;47.636;7.692;2023-03-13T14:45:59;2.35;;;1.13;;
9473;SDS011;8865;47.636;7.692;2023-03-13T14:48:27;1.80;;;1.00;;
9473;SDS011;8865;47.636;7.692;2023-03-13T14:51:03;1.25;;;0.77;;
9473;SDS011;8865;47.636;7.692;2023-03-13T14:53:35;1.17;;;0.63;;
9473;SDS011;8865;47.636;7.692;2023-03-13T14:56:11;0.90;;;0.70;;
9473;SDS011;8865;47.636;7.692;2023-03-13T14:58:46;2.40;;;0.50;;
9473;SDS011;8865;47.636;7.692;2023-03-13T15:01:23;0.63;;;0.60;;
9473;SDS011;8865;47.636;7.692;2023-03-13T15:03:52;1.73;;;0.60;;
9473;SDS011;8865;47.636;7.692;2023-03-13T15:06:19;1.38;;;0.40;;
9473;SDS011;8865;47.636;7.692;2023-03-13T15:08:48;0.90;;;0.40;;
9473;SDS011;8865;47.636;7.692;2023-03-13T15:11:35;1.60;;;0.60;;
9473;SDS011;8865;47.636;7.692;2023-03-13T15:17:02;1.37;;;0.63;;
9473;SDS011;8865;47.636;7.692;2023-03-13T15:19:29;1.97;;;0.53;;
9473;SDS011;8865;47.636;7.692;2023-03-13T15:21:56;0.40;;;0.40;;
9473;SDS011;8865;47.636;7.692;2023-03-13T15:24:23;0.60;;;0.53;;
9473;SDS011;8865;47.636;7.692;2023-03-13T15:26:49;0.60;;;0.50;;
9473;SDS011;8865;47.636;7.692;2023-03-13T15:29:15;2.77;;;0.70;;
9473;SDS011;8865;47.636;7.692;2023-03-13T15:31:42;0.73;;;0.70;;
9473;SDS011;8865;47.636;7.692;2023-03-13T15:34:09;0.80;;;0.60;;
9473;SDS011;8865;47.636;7.692;2023-03-13T15:36:37;1.80;;;0.40;;
9473;SDS011;8865;47.636;7.692;2023-03-13T15:39:15;0.50;;;0.50;;
9473;SDS011;8865;47.636;7.692;2023-03-13T15:41:43;0.63;;;0.43;;
9473;SDS011;8865;47.636;7.692;2023-03-13T15:44:09;1.07;;;0.70;;
9473;SDS011;8865;47.636;7.692;2023-03-13T15:46:35;1.47;;;0.70;;
9473;SDS011;8865;47.636;7.692;2023-03-13T15:49:02;1.30;;;0.50;;
9473;SDS011;8865;47.636;7.692;2023-03-13T15:51:28;0.90;;;0.70;;
9473;SDS011;8865;47.636;7.692;2023-03-13T15:53:55;0.83;;;0.60;;
9473;SDS011;8865;47.636;7.692;2023-03-13T15:56:21;2.93;;;0.70;;
9473;SDS011;8865;47.636;7.692;2023-03-13T15:58:48;0.80;;;0.60;;
9473;SDS011;8865;47.636;7.692;2023-03-13T16:01:14;2.00;;;0.90;;
9473;SDS011;8865;47.636;7.692;2023-03-13T16:03:42;1.83;;;0.70;;
9473;SDS011;8865;47.636;7.692;2023-03-13T16:06:12;2.00;;;0.93;;
9473;SDS011;8865;47.636;7.692;2023-03-13T16:08:43;0.73;;;0.73;;
9473;SDS011;8865;47.636;7.692;2023-03-13T16:11:11;1.27;;;0.90;;
9473;SDS011;8865;47.636;7.692;2023-03-13T16:13:39;0.63;;;0.63;;
9473;SDS011;8865;47.636;7.692;2023-03-13T16:16:10;1.30;;;0.80;;
9473;SDS011;8865;47.636;7.692;2023-03-13T16:18:50;1.33;;;0.70;;
9473;SDS011;8865;47.636;7.692;2023-03-13T16:21:24;1.10;;;0.80;;
9473;SDS011;8865;47.636;7.692;2023-03-13T16:23:52;1.47;;;1.00;;
9473;SDS011;8865;47.636;7.692;2023-03-13T16:26:22;1.10;;;0.87;;
9473;SDS011;8865;47.636;7.692;2023-03-13T16:28:50;0.70;;;0.70;;
9473;SDS011;8865;47.636;7.692;2023-03-13T16:31:18;0.90;;;0.80;;
9473;SDS011;8865;47.636;7.692;2023-03-13T16:33:56;0.80;;;0.80;;
9473;SDS011;8865;47.636;7.692;2023-03-13T16:36:27;0.97;;;0.80;;
9473;SDS011;8865;47.636;7.692;2023-03-13T16:38:56;0.90;;;0.90;;
9473;SDS011;8865;47.636;7.692;2023-03-13T16:41:26;2.00;;;1.00;;
9473;SDS011;8865;47.636;7.692;2023-03-13T16:43:53;0.90;;;0.90;;
9473;SDS011;8865;47.636;7.692;2023-03-13T16:46:21;1.40;;;1.00;;
9473;SDS011;8865;47.636;7.692;2023-03-13T16:48:49;1.43;;;0.90;;
9473;SDS011;8865;47.636;7.692;2023-03-13T16:53:44;4.17;;;3.77;;
9473;SDS011;8865;47.636;7.692;2023-03-13T16:56:20;4.53;;;4.10;;
9473;SDS011;8865;47.636;7.692;2023-03-13T16:58:52;5.17;;;3.60;;
9473;SDS011;8865;47.636;7.692;2023-03-13T17:01:19;3.90;;;3.50;;
9473;SDS011;8865;47.636;7.692;2023-03-13T17:03:45;3.17;;;2.87;;
9473;SDS011;8865;47.636;7.692;2023-03-13T17:06:15;3.47;;;2.53;;
9473;SDS011;8865;47.636;7.692;2023-03-13T17:08:44;3.60;;;3.10;;
9473;SDS011;8865;47.636;7.692;2023-03-13T17:11:10;3.17;;;2.63;;
9473;SDS011;8865;47.636;7.692;2023-03-13T17:13:39;4.50;;;3.10;;
9473;SDS011;8865;47.636;7.692;2023-03-13T17:16:12;6.03;;;3.10;;
9473;SDS011;8865;47.636;7.692;2023-03-13T17:18:50;3.53;;;3.23;;
9473;SDS011;8865;47.636;7.692;2023-03-13T17:21:19;5.97;;;3.90;;
9473;SDS011;8865;47.636;7.692;2023-03-13T17:23:49;4.20;;;3.37;;
9473;SDS011;8865;47.636;7.692;2023-03-13T17:26:19;3.40;;;1.90;;
9473;SDS011;8865;47.636;7.692;2023-03-13T17:28:53;4.43;;;2.50;;